Time,TemperatureF,DewpointF,PressureIn,WindDirection,WindDirectionDegrees,WindSpeedMPH,WindSpeedGustMPH,Humidity,HourlyPrecipIn,Conditions,Clouds,dailyrainin,SoftwareType,DateUTC
2013-04-08 00:09:00,41.5,34.0,29.93,ESE,102,1.0,2.0,75,0.00,,,0.00,weatherlink.com 1.10,2013-04-08 04:09:00,
2013-04-08 00:26:00,40.7,33.0,29.93,ESE,102,0.0,3.0,75,0.00,,,0.00,weatherlink.com 1.10,2013-04-08 04:26:00,
2013-04-08 00:39:00,40.2,34.0,29.93,ESE,102,0.0,2.0,77,0.00,,,0.00,weatherlink.com 1.10,2013-04-08 04:39:00,
2013-04-08 00:54:00,40.0,34.0,29.93,ESE,102,0.0,3.0,78,0.00,,,0.00,weatherlink.com 1.10,2013-04-08 04:54:00,
2013-04-08 01:09:00,39.5,34.0,29.93,ESE,102,1.0,3.0,79,0.00,,,0.00,weatherlink.com 1.10,2013-04-08 05:09:00,
2013-04-08 01:24:00,38.8,33.0,29.92,ESE,102,0.0,2.0,79,0.00,,,0.00,weatherlink.com 1.10,2013-04-08 05:24:00,
2013-04-08 01:39:00,38.3,33.0,29.92,ESE,102,0.0,3.0,82,0.00,,,0.00,weatherlink.com 1.10,2013-04-08 05:39:00,
2013-04-08 01:54:00,37.1,32.0,29.92,ESE,102,0.0,2.0,82,0.00,,,0.00,weatherlink.com 1.10,2013-04-08 05:54:00,
2013-04-08 02:10:00,36.2,32.0,29.92,ESE,102,0.0,2.0,83,0.00,,,0.00,weatherlink.com 1.10,2013-04-08 06:10:00,
2013-04-08 02:25:00,35.6,32.0,29.91,ESE,102,0.0,2.0,85,0.00,,,0.00,weatherlink.com 1.10,2013-04-08 06:25:00,
2013-04-08 02:40:00,34.8,31.0,29.91,ESE,102,0.0,3.0,87,0.00,,,0.00,weatherlink.com 1.10,2013-04-08 06:40:00,
2013-04-08 02:55:00,34.5,31.0,29.92,ESE,102,1.0,2.0,87,0.00,,,0.00,weatherlink.com 1.10,2013-04-08 06:55:00,
2013-04-08 03:10:00,33.9,31.0,29.92,ESE,102,0.0,3.0,88,0.00,,,0.00,weatherlink.com 1.10,2013-04-08 07:10:00,
2013-04-08 03:25:00,33.5,30.0,29.92,ESE,102,3.0,3.0,88,0.00,,,0.00,weatherlink.com 1.10,2013-04-08 07:25:00,
2013-04-08 03:40:00,33.0,30.0,29.92,ESE,102,0.0,3.0,90,0.00,,,0.00,weatherlink.com 1.10,2013-04-08 07:40:00,
2013-04-08 03:55:00,32.6,30.0,29.92,ESE,102,0.0,2.0,90,0.00,,,0.00,weatherlink.com 1.10,2013-04-08 07:55:00,
2013-04-08 04:10:00,32.0,29.0,29.93,ESE,102,0.0,1.0,90,0.00,,,0.00,weatherlink.com 1.10,2013-04-08 08:10:00,
2013-04-08 04:25:00,32.4,31.0,29.93,ESE,102,0.0,3.0,93,0.00,,,0.00,weatherlink.com 1.10,2013-04-08 08:25:00,
2013-04-08 04:40:00,31.9,30.0,29.93,ESE,102,0.0,0.0,91,0.00,,,0.00,weatherlink.com 1.10,2013-04-08 08:40:00,
2013-04-08 04:55:00,31.3,29.0,29.93,ESE,102,0.0,2.0,92,0.00,,,0.00,weatherlink.com 1.10,2013-04-08 08:55:00,
2013-04-08 05:10:00,30.8,29.0,29.93,ESE,102,0.0,1.0,92,0.00,,,0.00,weatherlink.com 1.10,2013-04-08 09:10:00,
2013-04-08 05:25:00,30.6,29.0,29.95,ESE,102,0.0,5.0,93,0.00,,,0.00,weatherlink.com 1.10,2013-04-08 09:25:00,
2013-04-08 05:40:00,30.6,29.0,29.95,ESE,102,3.0,5.0,93,0.00,,,0.00,weatherlink.com 1.10,2013-04-08 09:40:00,
2013-04-08 05:55:00,30.8,29.0,29.96,ESE,102,0.0,0.0,94,0.00,,,0.00,weatherlink.com 1.10,2013-04-08 09:55:00,
2013-04-08 06:10:00,31.2,30.0,29.97,ESE,102,0.0,3.0,94,0.00,,,0.00,weatherlink.com 1.10,2013-04-08 10:10:00,
2013-04-08 06:25:00,32.1,31.0,29.97,East,96,0.0,3.0,95,0.00,,,0.00,weatherlink.com 1.10,2013-04-08 10:25:00,
2013-04-08 06:55:00,34.1,33.0,29.98,NW,313,3.0,4.0,95,0.00,,,0.00,weatherlink.com 1.10,2013-04-08 10:55:00,
2013-04-08 07:10:00,41.5,36.0,29.98,West,277,5.0,7.0,82,0.00,,,0.00,weatherlink.com 1.10,2013-04-08 11:10:00,
2013-04-08 07:25:00,43.3,36.0,30.00,West,269,4.0,7.0,75,0.00,,,0.00,weatherlink.com 1.10,2013-04-08 11:25:00,
2013-04-08 07:40:00,43.8,35.0,30.01,West,275,7.0,8.0,72,0.00,,,0.00,weatherlink.com 1.10,2013-04-08 11:40:00,
2013-04-08 07:55:00,44.6,35.0,30.01,West,270,4.0,12.0,69,0.00,,,0.00,weatherlink.com 1.10,2013-04-08 11:55:00,
2013-04-08 08:10:00,44.9,35.0,30.01,WNW,288,6.0,12.0,68,0.00,,,0.00,weatherlink.com 1.10,2013-04-08 12:10:00,
2013-04-08 08:25:00,45.4,35.0,30.01,WNW,298,5.0,11.0,67,0.00,,,0.00,weatherlink.com 1.10,2013-04-08 12:25:00,
2013-04-08 08:40:00,45.9,35.0,30.01,West,281,8.0,12.0,65,0.00,,,0.00,weatherlink.com 1.10,2013-04-08 12:40:00,
2013-04-08 08:56:00,45.8,34.0,30.02,NW,320,15.0,22.0,64,0.00,,,0.00,weatherlink.com 1.10,2013-04-08 12:56:00,
2013-04-08 09:11:00,45.2,34.0,30.02,NW,304,16.0,20.0,64,0.00,,,0.00,weatherlink.com 1.10,2013-04-08 13:11:00,
2013-04-08 09:26:00,45.1,33.0,30.03,WSW,257,5.0,13.0,64,0.00,,,0.00,weatherlink.com 1.10,2013-04-08 13:26:00,
2013-04-08 09:41:00,45.2,33.0,30.04,NW,305,3.0,12.0,63,0.00,,,0.00,weatherlink.com 1.10,2013-04-08 13:41:00,
2013-04-08 09:56:00,45.0,34.0,30.04,WNW,291,5.0,22.0,65,0.00,,,0.00,weatherlink.com 1.10,2013-04-08 13:56:00,
2013-04-08 10:11:00,45.1,33.0,30.04,NW,304,4.0,13.0,64,0.00,,,0.00,weatherlink.com 1.10,2013-04-08 14:11:00,
2013-04-08 10:26:00,45.6,34.0,30.04,WNW,294,2.0,12.0,63,0.00,,,0.00,weatherlink.com 1.10,2013-04-08 14:26:00,
2013-04-08 11:56:00,49.6,33.0,30.07,NW,325,8.0,13.0,54,0.00,,,0.00,weatherlink.com 1.10,2013-04-08 15:56:00,
2013-04-08 12:11:00,49.7,34.0,30.07,West,273,9.0,14.0,56,0.00,,,0.00,weatherlink.com 1.10,2013-04-08 16:11:00,
2013-04-08 12:26:00,50.4,35.0,30.06,West,270,4.0,10.0,55,0.00,,,0.00,weatherlink.com 1.10,2013-04-08 16:26:00,
2013-04-08 12:41:00,50.7,34.0,30.06,WSW,258,6.0,12.0,53,0.00,,,0.00,weatherlink.com 1.10,2013-04-08 16:41:00,
2013-04-08 12:56:00,50.2,33.0,30.05,West,274,5.0,14.0,53,0.00,,,0.00,weatherlink.com 1.10,2013-04-08 16:56:00,
2013-04-08 13:11:00,51.1,34.0,30.05,West,281,9.0,13.0,52,0.00,,,0.00,weatherlink.com 1.10,2013-04-08 17:11:00,
2013-04-08 13:26:00,51.7,33.0,30.05,NW,321,1.0,12.0,50,0.00,,,0.00,weatherlink.com 1.10,2013-04-08 17:26:00,
2013-04-08 13:41:00,53.0,34.0,30.05,NNW,330,1.0,11.0,48,0.00,,,0.00,weatherlink.com 1.10,2013-04-08 17:41:00,
2013-04-08 13:57:00,54.3,33.0,30.05,West,280,6.0,9.0,45,0.00,,,0.00,weatherlink.com 1.10,2013-04-08 17:57:00,
2013-04-08 14:11:00,53.9,32.0,30.04,WSW,254,2.0,13.0,43,0.00,,,0.00,weatherlink.com 1.10,2013-04-08 18:11:00,
2013-04-08 14:41:00,54.7,32.0,30.03,NW,325,6.0,10.0,42,0.00,,,0.00,weatherlink.com 1.10,2013-04-08 18:41:00,
2013-04-08 14:56:00,55.0,31.0,30.03,WNW,284,5.0,9.0,40,0.00,,,0.00,weatherlink.com 1.10,2013-04-08 18:56:00,
2013-04-08 15:11:00,55.8,32.0,30.02,WSW,249,5.0,12.0,41,0.00,,,0.00,weatherlink.com 1.10,2013-04-08 19:11:00,
2013-04-08 15:27:00,56.8,32.0,30.02,WNW,288,5.0,9.0,39,0.00,,,0.00,weatherlink.com 1.10,2013-04-08 19:27:00,
2013-04-08 15:42:00,56.7,30.0,30.02,West,271,2.0,10.0,37,0.00,,,0.00,weatherlink.com 1.10,2013-04-08 19:42:00,
2013-04-08 15:57:00,57.2,30.0,30.02,WSW,256,3.0,9.0,36,0.00,,,0.00,weatherlink.com 1.10,2013-04-08 19:57:00,
2013-04-08 16:12:00,58.0,30.0,30.02,SW,231,6.0,10.0,35,0.00,,,0.00,weatherlink.com 1.10,2013-04-08 20:12:00,
2013-04-08 16:27:00,57.8,30.0,30.01,NW,323,2.0,8.0,35,0.00,,,0.00,weatherlink.com 1.10,2013-04-08 20:27:00,
2013-04-08 16:43:00,58.5,31.0,29.99,NNW,342,1.0,4.0,35,0.00,,,0.00,weatherlink.com 1.10,2013-04-08 20:43:00,
2013-04-08 16:57:00,58.9,29.0,30.00,WNW,298,3.0,6.0,32,0.00,,,0.00,weatherlink.com 1.10,2013-04-08 20:57:00,
2013-04-08 17:12:00,58.8,30.0,30.01,West,281,0.0,10.0,33,0.00,,,0.00,weatherlink.com 1.10,2013-04-08 21:12:00,
2013-04-08 17:27:00,59.1,28.0,30.00,WNW,294,0.0,7.0,30,0.00,,,0.00,weatherlink.com 1.10,2013-04-08 21:27:00,
2013-04-08 17:42:00,59.0,30.0,30.00,West,274,4.0,6.0,33,0.00,,,0.00,weatherlink.com 1.10,2013-04-08 21:42:00,
2013-04-08 17:57:00,59.0,30.0,30.00,West,275,0.0,2.0,33,0.00,,,0.00,weatherlink.com 1.10,2013-04-08 21:57:00,
2013-04-08 18:12:00,58.6,29.0,30.00,West,275,0.0,0.0,32,0.00,,,0.00,weatherlink.com 1.10,2013-04-08 22:12:00,
2013-04-08 18:27:00,57.2,33.0,30.01,West,275,0.0,1.0,40,0.00,,,0.00,weatherlink.com 1.10,2013-04-08 22:27:00,
2013-04-08 18:42:00,55.2,33.0,30.02,West,275,0.0,0.0,44,0.00,,,0.00,weatherlink.com 1.10,2013-04-08 22:42:00,
2013-04-08 18:57:00,53.1,34.0,30.03,West,275,0.0,0.0,48,0.00,,,0.00,weatherlink.com 1.10,2013-04-08 22:57:00,
2013-04-08 19:12:00,50.3,34.0,30.03,West,275,0.0,0.0,54,0.00,,,0.00,weatherlink.com 1.10,2013-04-08 23:12:00,
2013-04-08 19:27:00,47.4,34.0,30.03,West,275,0.0,3.0,59,0.00,,,0.00,weatherlink.com 1.10,2013-04-08 23:27:00,
2013-04-08 19:42:00,45.8,33.0,30.04,West,275,0.0,0.0,62,0.00,,,0.00,weatherlink.com 1.10,2013-04-08 23:42:00,
2013-04-08 19:57:00,44.6,33.0,30.05,West,275,0.0,0.0,64,0.00,,,0.00,weatherlink.com 1.10,2013-04-08 23:57:00,
2013-04-08 20:12:00,43.2,33.0,30.06,West,275,0.0,0.0,68,0.00,,,0.00,weatherlink.com 1.10,2013-04-09 00:12:00,
2013-04-08 20:27:00,42.2,33.0,30.06,West,275,1.0,2.0,70,0.00,,,0.00,weatherlink.com 1.10,2013-04-09 00:27:00,
2013-04-08 20:42:00,41.3,33.0,30.07,West,275,0.0,1.0,71,0.00,,,0.00,weatherlink.com 1.10,2013-04-09 00:42:00,
2013-04-08 20:57:00,40.5,33.0,30.08,West,275,0.0,0.0,74,0.00,,,0.00,weatherlink.com 1.10,2013-04-09 00:57:00,
2013-04-08 21:13:00,39.7,32.0,30.07,West,275,0.0,1.0,75,0.00,,,0.00,weatherlink.com 1.10,2013-04-09 01:13:00,
2013-04-08 21:27:00,39.1,32.0,30.08,West,275,0.0,0.0,77,0.00,,,0.00,weatherlink.com 1.10,2013-04-09 01:27:00,
2013-04-08 21:42:00,38.6,32.0,30.08,West,275,0.0,4.0,77,0.00,,,0.00,weatherlink.com 1.10,2013-04-09 01:42:00,
2013-04-08 21:57:00,38.2,32.0,30.08,West,275,0.0,1.0,78,0.00,,,0.00,weatherlink.com 1.10,2013-04-09 01:57:00,
2013-04-08 22:12:00,37.9,31.0,30.09,West,275,0.0,3.0,77,0.00,,,0.00,weatherlink.com 1.10,2013-04-09 02:12:00,
2013-04-08 22:27:00,37.4,31.0,30.09,West,275,0.0,1.0,79,0.00,,,0.00,weatherlink.com 1.10,2013-04-09 02:27:00,
2013-04-08 22:42:00,37.1,32.0,30.08,West,275,0.0,0.0,81,0.00,,,0.00,weatherlink.com 1.10,2013-04-09 02:42:00,
2013-04-08 22:57:00,36.5,31.0,30.08,West,275,0.0,0.0,81,0.00,,,0.00,weatherlink.com 1.10,2013-04-09 02:57:00,
2013-04-08 23:12:00,36.2,31.0,30.08,West,275,0.0,0.0,82,0.00,,,0.00,weatherlink.com 1.10,2013-04-09 03:12:00,
2013-04-08 23:27:00,36.1,31.0,30.08,West,275,0.0,0.0,82,0.00,,,0.00,weatherlink.com 1.10,2013-04-09 03:27:00,
2013-04-08 23:42:00,35.9,31.0,30.08,West,275,0.0,0.0,83,0.00,,,0.00,weatherlink.com 1.10,2013-04-09 03:42:00,
2013-04-08 23:57:00,36.0,31.0,30.08,West,275,0.0,1.0,83,0.00,,,0.00,weatherlink.com 1.10,2013-04-09 03:57:00,